sensor_id;sensor_type;location;lat;lon;timestamp;P1;durP1;ratioP1;P2;durP2;ratioP2
80179;SDS011;69505;52.134;5.438;2023-11-21T00:01:03;14.98;;;7.45;;
80179;SDS011;69505;52.134;5.438;2023-11-21T00:03:31;13.20;;;7.20;;
80179;SDS011;69505;52.134;5.438;2023-11-21T00:05:58;10.80;;;6.40;;
80179;SDS011;69505;52.134;5.438;2023-11-21T00:08:25;14.68;;;6.03;;
80179;SDS011;69505;52.134;5.438;2023-11-21T00:10:51;14.27;;;7.00;;
80179;SDS011;69505;52.134;5.438;2023-11-21T00:13:18;13.30;;;7.32;;
80179;SDS011;69505;52.134;5.438;2023-11-21T00:15:44;15.48;;;7.40;;
80179;SDS011;69505;52.134;5.438;2023-11-21T00:18:11;12.95;;;7.55;;
80179;SDS011;69505;52.134;5.438;2023-11-21T00:20:38;11.80;;;6.95;;
80179;SDS011;69505;52.134;5.438;2023-11-21T00:23:04;12.77;;;6.22;;
80179;SDS011;69505;52.134;5.438;2023-11-21T00:25:31;10.65;;;6.35;;
80179;SDS011;69505;52.134;5.438;2023-11-21T00:27:58;11.40;;;6.63;;
80179;SDS011;69505;52.134;5.438;2023-11-21T00:30:25;20.45;;;7.35;;
80179;SDS011;69505;52.134;5.438;2023-11-21T00:32:51;16.45;;;7.78;;
80179;SDS011;69505;52.134;5.438;2023-11-21T00:35:18;14.50;;;7.47;;
80179;SDS011;69505;52.134;5.438;2023-11-21T00:37:44;24.17;;;8.20;;
80179;SDS011;69505;52.134;5.438;2023-11-21T00:40:12;12.20;;;6.93;;
80179;SDS011;69505;52.134;5.438;2023-11-21T00:42:39;22.10;;;6.38;;
80179;SDS011;69505;52.134;5.438;2023-11-21T00:45:06;10.55;;;6.70;;
80179;SDS011;69505;52.134;5.438;2023-11-21T00:47:33;13.63;;;7.85;;
80179;SDS011;69505;52.134;5.438;2023-11-21T00:50:00;14.32;;;7.30;;
80179;SDS011;69505;52.134;5.438;2023-11-21T00:52:26;13.90;;;7.35;;
80179;SDS011;69505;52.134;5.438;2023-11-21T00:54:53;20.17;;;7.60;;
80179;SDS011;69505;52.134;5.438;2023-11-21T00:57:20;12.10;;;6.50;;
80179;SDS011;69505;52.134;5.438;2023-11-21T00:59:46;11.80;;;6.97;;
80179;SDS011;69505;52.134;5.438;2023-11-21T01:02:13;9.25;;;6.18;;
80179;SDS011;69505;52.134;5.438;2023-11-21T01:04:40;11.52;;;7.30;;
80179;SDS011;69505;52.134;5.438;2023-11-21T01:07:06;12.52;;;6.57;;
80179;SDS011;69505;52.134;5.438;2023-11-21T01:09:33;10.52;;;6.40;;
80179;SDS011;69505;52.134;5.438;2023-11-21T01:12:00;10.35;;;6.07;;
80179;SDS011;69505;52.134;5.438;2023-11-21T01:14:27;8.60;;;4.85;;
80179;SDS011;69505;52.134;5.438;2023-11-21T01:16:54;12.07;;;6.38;;
80179;SDS011;69505;52.134;5.438;2023-11-21T01:19:20;9.18;;;5.80;;
80179;SDS011;69505;52.134;5.438;2023-11-21T01:21:47;9.13;;;5.78;;
80179;SDS011;69505;52.134;5.438;2023-11-21T01:24:14;11.15;;;6.38;;
80179;SDS011;69505;52.134;5.438;2023-11-21T01:26:40;8.85;;;5.55;;
80179;SDS011;69505;52.134;5.438;2023-11-21T01:29:07;8.98;;;6.43;;
80179;SDS011;69505;52.134;5.438;2023-11-21T01:31:34;9.70;;;6.13;;
80179;SDS011;69505;52.134;5.438;2023-11-21T01:34:00;9.05;;;6.10;;
80179;SDS011;69505;52.134;5.438;2023-11-21T01:36:31;12.90;;;6.28;;
80179;SDS011;69505;52.134;5.438;2023-11-21T01:39:01;9.75;;;5.82;;
80179;SDS011;69505;52.134;5.438;2023-11-21T01:41:34;9.45;;;6.05;;
80179;SDS011;69505;52.134;5.438;2023-11-21T01:44:01;8.32;;;6.15;;
80179;SDS011;69505;52.134;5.438;2023-11-21T01:46:28;9.82;;;6.40;;
80179;SDS011;69505;52.134;5.438;2023-11-21T01:48:55;9.98;;;6.30;;
80179;SDS011;69505;52.134;5.438;2023-11-21T01:51:22;8.95;;;6.25;;
80179;SDS011;69505;52.134;5.438;2023-11-21T01:53:49;8.57;;;5.30;;
80179;SDS011;69505;52.134;5.438;2023-11-21T01:56:16;7.70;;;5.63;;
80179;SDS011;69505;52.134;5.438;2023-11-21T01:58:42;7.93;;;5.40;;
80179;SDS011;69505;52.134;5.438;2023-11-21T02:01:10;7.32;;;4.78;;
80179;SDS011;69505;52.134;5.438;2023-11-21T02:03:36;7.88;;;5.68;;
80179;SDS011;69505;52.134;5.438;2023-11-21T02:06:03;7.68;;;5.53;;
80179;SDS011;69505;52.134;5.438;2023-11-21T02:08:30;8.65;;;5.45;;
80179;SDS011;69505;52.134;5.438;2023-11-21T02:10:57;9.38;;;5.22;;
80179;SDS011;69505;52.134;5.438;2023-11-21T02:13:24;10.30;;;5.55;;
80179;SDS011;69505;52.134;5.438;2023-11-21T02:15:50;8.65;;;5.60;;
80179;SDS011;69505;52.134;5.438;2023-11-21T02:18:18;7.47;;;5.38;;
80179;SDS011;69505;52.134;5.438;2023-11-21T02:20:45;10.75;;;5.68;;
80179;SDS011;69505;52.134;5.438;2023-11-21T02:23:13;9.45;;;5.88;;
80179;SDS011;69505;52.134;5.438;2023-11-21T02:25:40;9.93;;;5.32;;
80179;SDS011;69505;52.134;5.438;2023-11-21T02:28:09;8.45;;;5.38;;
80179;SDS011;69505;52.134;5.438;2023-11-21T02:30:39;8.48;;;5.40;;
80179;SDS011;69505;52.134;5.438;2023-11-21T02:33:05;9.50;;;6.07;;
80179;SDS011;69505;52.134;5.438;2023-11-21T02:35:33;8.90;;;5.78;;
80179;SDS011;69505;52.134;5.438;2023-11-21T02:38:01;7.85;;;4.75;;
80179;SDS011;69505;52.134;5.438;2023-11-21T02:40:28;9.73;;;5.45;;
80179;SDS011;69505;52.134;5.438;2023-11-21T02:42:56;10.65;;;5.28;;
80179;SDS011;69505;52.134;5.438;2023-11-21T02:45:25;8.85;;;5.75;;
80179;SDS011;69505;52.134;5.438;2023-11-21T02:47:52;11.35;;;6.13;;
80179;SDS011;69505;52.134;5.438;2023-11-21T02:50:24;8.52;;;4.93;;
80179;SDS011;69505;52.134;5.438;2023-11-21T02:52:51;8.10;;;5.28;;
80179;SDS011;69505;52.134;5.438;2023-11-21T02:55:18;8.57;;;5.88;;
80179;SDS011;69505;52.134;5.438;2023-11-21T02:57:44;8.85;;;4.95;;
80179;SDS011;69505;52.134;5.438;2023-11-21T03:00:11;7.65;;;5.03;;
80179;SDS011;69505;52.134;5.438;2023-11-21T03:02:39;9.77;;;5.50;;
80179;SDS011;69505;52.134;5.438;2023-11-21T03:05:07;10.85;;;5.85;;
80179;SDS011;69505;52.134;5.438;2023-11-21T03:07:38;7.22;;;4.88;;
80179;SDS011;69505;52.134;5.438;2023-11-21T03:10:07;9.73;;;5.57;;
80179;SDS011;69505;52.134;5.438;2023-11-21T03:12:38;7.78;;;5.05;;
80179;SDS011;69505;52.134;5.438;2023-11-21T03:15:06;7.07;;;4.93;;
80179;SDS011;69505;52.134;5.438;2023-11-21T03:17:33;9.70;;;5.32;;
80179;SDS011;69505;52.134;5.438;2023-11-21T03:20:03;8.82;;;5.22;;
80179;SDS011;69505;52.134;5.438;2023-11-21T03:22:31;8.68;;;5.38;;
80179;SDS011;69505;52.134;5.438;2023-11-21T03:24:58;8.13;;;5.30;;
80179;SDS011;69505;52.134;5.438;2023-11-21T03:27:24;10.55;;;5.00;;
80179;SDS011;69505;52.134;5.438;2023-11-21T03:29:51;9.52;;;5.63;;
80179;SDS011;69505;52.134;5.438;2023-11-21T03:32:18;7.50;;;4.70;;
80179;SDS011;69505;52.134;5.438;2023-11-21T03:34:55;10.30;;;5.18;;
80179;SDS011;69505;52.134;5.438;2023-11-21T03:37:25;8.88;;;5.10;;
80179;SDS011;69505;52.134;5.438;2023-11-21T03:42:21;9.90;;;4.65;;
80179;SDS011;69505;52.134;5.438;2023-11-21T03:44:48;8.18;;;5.43;;
80179;SDS011;69505;52.134;5.438;2023-11-21T03:47:14;12.10;;;4.50;;
80179;SDS011;69505;52.134;5.438;2023-11-21T03:49:42;9.82;;;5.00;;
80179;SDS011;69505;52.134;5.438;2023-11-21T03:52:08;12.40;;;5.30;;
80179;SDS011;69505;52.134;5.438;2023-11-21T03:54:36;8.02;;;4.68;;
80179;SDS011;69505;52.134;5.438;2023-11-21T03:57:03;10.68;;;5.63;;
80179;SDS011;69505;52.134;5.438;2023-11-21T03:59:29;11.02;;;5.55;;
80179;SDS011;69505;52.134;5.438;2023-11-21T04:01:56;9.35;;;5.80;;
80179;SDS011;69505;52.134;5.438;2023-11-21T04:04:23;8.73;;;5.25;;
80179;SDS011;69505;52.134;5.438;2023-11-21T04:06:50;9.05;;;4.95;;
80179;SDS011;69505;52.134;5.438;2023-11-21T04:09:18;9.20;;;5.07;;
80179;SDS011;69505;52.134;5.438;2023-11-21T04:11:45;8.90;;;5.43;;
80179;SDS011;69505;52.134;5.438;2023-11-21T04:14:12;10.05;;;5.68;;
80179;SDS011;69505;52.134;5.438;2023-11-21T04:16:40;10.63;;;5.78;;
80179;SDS011;69505;52.134;5.438;2023-11-21T04:19:07;14.07;;;6.03;;
80179;SDS011;69505;52.134;5.438;2023-11-21T04:21:36;11.88;;;5.63;;
80179;SDS011;69505;52.134;5.438;2023-11-21T04:24:03;8.65;;;5.60;;
80179;SDS011;69505;52.134;5.438;2023-11-21T04:26:29;10.93;;;6.03;;
80179;SDS011;69505;52.134;5.438;2023-11-21T04:28:56;12.05;;;5.72;;
80179;SDS011;69505;52.134;5.438;2023-11-21T04:31:23;13.68;;;6.43;;
80179;SDS011;69505;52.134;5.438;2023-11-21T04:33:49;9.43;;;5.40;;
80179;SDS011;69505;52.134;5.438;2023-11-21T04:36:16;18.25;;;6.00;;
80179;SDS011;69505;52.134;5.438;2023-11-21T04:38:43;10.80;;;5.75;;
80179;SDS011;69505;52.134;5.438;2023-11-21T04:41:10;11.02;;;5.57;;
80179;SDS011;69505;52.134;5.438;2023-11-21T04:43:38;12.77;;;5.55;;
80179;SDS011;69505;52.134;5.438;2023-11-21T04:46:04;11.68;;;6.20;;
80179;SDS011;69505;52.134;5.438;2023-11-21T04:48:31;12.82;;;5.65;;
80179;SDS011;69505;52.134;5.438;2023-11-21T04:50:58;8.20;;;5.65;;
80179;SDS011;69505;52.134;5.438;2023-11-21T04:53:24;9.75;;;5.78;;
80179;SDS011;69505;52.134;5.438;2023-11-21T04:55:51;11.93;;;5.75;;
80179;SDS011;69505;52.134;5.438;2023-11-21T04:58:17;8.40;;;5.40;;
80179;SDS011;69505;52.134;5.438;2023-11-21T05:00:45;11.23;;;5.20;;
80179;SDS011;69505;52.134;5.438;2023-11-21T05:03:12;11.52;;;6.40;;
80179;SDS011;69505;52.134;5.438;2023-11-21T05:05:39;7.95;;;5.57;;
80179;SDS011;69505;52.134;5.438;2023-11-21T05:08:05;11.07;;;5.47;;
80179;SDS011;69505;52.134;5.438;2023-11-21T05:10:33;11.73;;;5.88;;
80179;SDS011;69505;52.134;5.438;2023-11-21T05:13:00;10.38;;;6.00;;
80179;SDS011;69505;52.134;5.438;2023-11-21T05:15:27;16.13;;;6.18;;
80179;SDS011;69505;52.134;5.438;2023-11-21T05:17:53;12.38;;;6.35;;
80179;SDS011;69505;52.134;5.438;2023-11-21T05:20:21;10.98;;;5.88;;
80179;SDS011;69505;52.134;5.438;2023-11-21T05:22:48;12.98;;;5.95;;
80179;SDS011;69505;52.134;5.438;2023-11-21T05:25:15;10.52;;;5.97;;
80179;SDS011;69505;52.134;5.438;2023-11-21T05:27:45;13.95;;;6.45;;
80179;SDS011;69505;52.134;5.438;2023-11-21T05:30:13;7.68;;;4.80;;
80179;SDS011;69505;52.134;5.438;2023-11-21T05:32:40;12.43;;;6.05;;
80179;SDS011;69505;52.134;5.438;2023-11-21T05:35:10;12.18;;;6.25;;
80179;SDS011;69505;52.134;5.438;2023-11-21T05:37:42;12.07;;;4.55;;
80179;SDS011;69505;52.134;5.438;2023-11-21T05:40:08;13.25;;;6.15;;
80179;SDS011;69505;52.134;5.438;2023-11-21T05:42:36;13.50;;;6.57;;
80179;SDS011;69505;52.134;5.438;2023-11-21T05:45:05;10.43;;;4.93;;
80179;SDS011;69505;52.134;5.438;2023-11-21T05:47:39;9.73;;;6.18;;
80179;SDS011;69505;52.134;5.438;2023-11-21T05:50:08;14.32;;;6.15;;
80179;SDS011;69505;52.134;5.438;2023-11-21T05:52:41;11.65;;;6.60;;
80179;SDS011;69505;52.134;5.438;2023-11-21T05:55:08;12.80;;;5.95;;
80179;SDS011;69505;52.134;5.438;2023-11-21T05:57:35;11.20;;;6.05;;
80179;SDS011;69505;52.134;5.438;2023-11-21T06:02:52;10.55;;;5.43;;
80179;SDS011;69505;52.134;5.438;2023-11-21T06:05:22;11.73;;;6.20;;
80179;SDS011;69505;52.134;5.438;2023-11-21T06:07:50;12.50;;;5.55;;
80179;SDS011;69505;52.134;5.438;2023-11-21T06:10:19;8.82;;;5.90;;
80179;SDS011;69505;52.134;5.438;2023-11-21T06:12:47;12.48;;;6.32;;
80179;SDS011;69505;52.134;5.438;2023-11-21T06:15:14;13.27;;;5.78;;
80179;SDS011;69505;52.134;5.438;2023-11-21T06:17:42;10.52;;;6.38;;
80179;SDS011;69505;52.134;5.438;2023-11-21T06:20:10;9.02;;;5.88;;
80179;SDS011;69505;52.134;5.438;2023-11-21T06:22:41;11.18;;;5.93;;
80179;SDS011;69505;52.134;5.438;2023-11-21T06:25:08;12.90;;;5.80;;
80179;SDS011;69505;52.134;5.438;2023-11-21T06:27:41;13.32;;;6.03;;
80179;SDS011;69505;52.134;5.438;2023-11-21T06:30:09;10.68;;;5.70;;
80179;SDS011;69505;52.134;5.438;2023-11-21T06:32:36;12.25;;;6.05;;
80179;SDS011;69505;52.134;5.438;2023-11-21T06:35:03;11.85;;;5.45;;
80179;SDS011;69505;52.134;5.438;2023-11-21T06:37:30;11.35;;;6.35;;
80179;SDS011;69505;52.134;5.438;2023-11-21T06:39:58;11.82;;;6.13;;
80179;SDS011;69505;52.134;5.438;2023-11-21T06:42:26;10.38;;;5.50;;
80179;SDS011;69505;52.134;5.438;2023-11-21T06:44:53;10.43;;;6.38;;
80179;SDS011;69505;52.134;5.438;2023-11-21T06:47:23;11.40;;;6.13;;
80179;SDS011;69505;52.134;5.438;2023-11-21T06:49:54;9.95;;;5.85;;
80179;SDS011;69505;52.134;5.438;2023-11-21T06:52:21;10.13;;;6.47;;
80179;SDS011;69505;52.134;5.438;2023-11-21T06:54:48;14.73;;;5.75;;
80179;SDS011;69505;52.134;5.438;2023-11-21T06:57:18;7.85;;;5.38;;
80179;SDS011;69505;52.134;5.438;2023-11-21T06:59:44;12.57;;;6.15;;
80179;SDS011;69505;52.134;5.438;2023-11-21T07:02:11;11.68;;;6.10;;
80179;SDS011;69505;52.134;5.438;2023-11-21T07:04:38;11.85;;;5.40;;
80179;SDS011;69505;52.134;5.438;2023-11-21T07:07:05;11.35;;;6.10;;
80179;SDS011;69505;52.134;5.438;2023-11-21T07:09:35;15.18;;;6.10;;
80179;SDS011;69505;52.134;5.438;2023-11-21T07:12:17;11.13;;;5.32;;
80179;SDS011;69505;52.134;5.438;2023-11-21T07:14:44;10.85;;;5.72;;
80179;SDS011;69505;52.134;5.438;2023-11-21T07:17:11;12.55;;;5.28;;
80179;SDS011;69505;52.134;5.438;2023-11-21T07:19:38;12.20;;;5.10;;
80179;SDS011;69505;52.134;5.438;2023-11-21T07:22:05;8.68;;;4.43;;
80179;SDS011;69505;52.134;5.438;2023-11-21T07:24:32;9.70;;;5.30;;
80179;SDS011;69505;52.134;5.438;2023-11-21T07:26:59;9.82;;;5.20;;
80179;SDS011;69505;52.134;5.438;2023-11-21T07:29:25;12.25;;;5.50;;
80179;SDS011;69505;52.134;5.438;2023-11-21T07:31:52;8.07;;;5.10;;
80179;SDS011;69505;52.134;5.438;2023-11-21T07:34:20;11.80;;;5.47;;
80179;SDS011;69505;52.134;5.438;2023-11-21T07:36:47;12.43;;;4.55;;
80179;SDS011;69505;52.134;5.438;2023-11-21T07:39:14;11.88;;;5.63;;
80179;SDS011;69505;52.134;5.438;2023-11-21T07:41:42;8.00;;;4.28;;
80179;SDS011;69505;52.134;5.438;2023-11-21T07:44:16;9.35;;;5.10;;
80179;SDS011;69505;52.134;5.438;2023-11-21T07:46:43;8.98;;;4.53;;
80179;SDS011;69505;52.134;5.438;2023-11-21T07:49:10;7.93;;;4.63;;
80179;SDS011;69505;52.134;5.438;2023-11-21T07:51:38;9.10;;;4.38;;
80179;SDS011;69505;52.134;5.438;2023-11-21T07:54:04;8.07;;;5.07;;
80179;SDS011;69505;52.134;5.438;2023-11-21T07:56:31;8.60;;;4.53;;
80179;SDS011;69505;52.134;5.438;2023-11-21T07:58:58;8.77;;;4.07;;
80179;SDS011;69505;52.134;5.438;2023-11-21T08:01:25;6.15;;;4.13;;
80179;SDS011;69505;52.134;5.438;2023-11-21T08:03:51;8.93;;;4.18;;
80179;SDS011;69505;52.134;5.438;2023-11-21T08:06:19;8.77;;;4.55;;
80179;SDS011;69505;52.134;5.438;2023-11-21T08:08:45;9.63;;;4.32;;
80179;SDS011;69505;52.134;5.438;2023-11-21T08:11:12;10.77;;;4.38;;
80179;SDS011;69505;52.134;5.438;2023-11-21T08:13:39;10.98;;;4.13;;
80179;SDS011;69505;52.134;5.438;2023-11-21T08:16:05;7.68;;;3.90;;
80179;SDS011;69505;52.134;5.438;2023-11-21T08:18:33;8.40;;;4.00;;
80179;SDS011;69505;52.134;5.438;2023-11-21T08:21:01;9.63;;;4.38;;
80179;SDS011;69505;52.134;5.438;2023-11-21T08:23:29;5.82;;;3.80;;
80179;SDS011;69505;52.134;5.438;2023-11-21T08:25:56;9.30;;;4.10;;
80179;SDS011;69505;52.134;5.438;2023-11-21T08:28:22;13.48;;;4.35;;
80179;SDS011;69505;52.134;5.438;2023-11-21T08:30:52;6.32;;;3.80;;
80179;SDS011;69505;52.134;5.438;2023-11-21T08:33:20;9.13;;;4.18;;
80179;SDS011;69505;52.134;5.438;2023-11-21T08:35:47;6.18;;;3.90;;
80179;SDS011;69505;52.134;5.438;2023-11-21T08:38:13;5.63;;;3.70;;
80179;SDS011;69505;52.134;5.438;2023-11-21T08:40:40;7.35;;;3.90;;
80179;SDS011;69505;52.134;5.438;2023-11-21T08:43:07;7.13;;;4.30;;
80179;SDS011;69505;52.134;5.438;2023-11-21T08:45:34;7.43;;;4.30;;
80179;SDS011;69505;52.134;5.438;2023-11-21T08:48:01;5.43;;;2.78;;
80179;SDS011;69505;52.134;5.438;2023-11-21T08:50:28;10.80;;;4.32;;
80179;SDS011;69505;52.134;5.438;2023-11-21T08:52:55;6.72;;;4.18;;
80179;SDS011;69505;52.134;5.438;2023-11-21T08:55:21;9.40;;;4.20;;
80179;SDS011;69505;52.134;5.438;2023-11-21T08:57:48;8.38;;;4.57;;
80179;SDS011;69505;52.134;5.438;2023-11-21T09:00:15;8.23;;;4.70;;
80179;SDS011;69505;52.134;5.438;2023-11-21T09:02:43;10.90;;;5.72;;
80179;SDS011;69505;52.134;5.438;2023-11-21T09:05:10;8.35;;;5.22;;
80179;SDS011;69505;52.134;5.438;2023-11-21T09:07:38;10.98;;;5.35;;
80179;SDS011;69505;52.134;5.438;2023-11-21T09:10:07;9.52;;;5.85;;
80179;SDS011;69505;52.134;5.438;2023-11-21T09:12:36;12.52;;;6.25;;
80179;SDS011;69505;52.134;5.438;2023-11-21T09:15:06;11.05;;;6.57;;
80179;SDS011;69505;52.134;5.438;2023-11-21T09:17:34;12.25;;;6.97;;
80179;SDS011;69505;52.134;5.438;2023-11-21T09:20:01;10.23;;;6.55;;
80179;SDS011;69505;52.134;5.438;2023-11-21T09:22:31;11.13;;;6.35;;
80179;SDS011;69505;52.134;5.438;2023-11-21T09:24:58;11.70;;;6.95;;
80179;SDS011;69505;52.134;5.438;2023-11-21T09:27:25;11.02;;;7.13;;
80179;SDS011;69505;52.134;5.438;2023-11-21T09:29:52;10.43;;;6.75;;
80179;SDS011;69505;52.134;5.438;2023-11-21T09:32:20;13.07;;;6.25;;
80179;SDS011;69505;52.134;5.438;2023-11-21T09:34:48;12.02;;;6.95;;
80179;SDS011;69505;52.134;5.438;2023-11-21T09:37:16;12.82;;;6.85;;
80179;SDS011;69505;52.134;5.438;2023-11-21T09:39:43;11.10;;;6.50;;
80179;SDS011;69505;52.134;5.438;2023-11-21T09:42:17;12.27;;;6.47;;
80179;SDS011;69505;52.134;5.438;2023-11-21T09:45:10;10.80;;;6.75;;
80179;SDS011;69505;52.134;5.438;2023-11-21T09:47:54;11.43;;;7.15;;
80179;SDS011;69505;52.134;5.438;2023-11-21T09:50:22;12.82;;;7.28;;
80179;SDS011;69505;52.134;5.438;2023-11-21T09:55:37;13.38;;;6.78;;
80179;SDS011;69505;52.134;5.438;2023-11-21T09:58:06;12.32;;;7.30;;
80179;SDS011;69505;52.134;5.438;2023-11-21T10:00:42;12.90;;;6.80;;
80179;SDS011;69505;52.134;5.438;2023-11-21T10:03:10;10.55;;;6.32;;
80179;SDS011;69505;52.134;5.438;2023-11-21T10:05:38;9.52;;;6.05;;
80179;SDS011;69505;52.134;5.438;2023-11-21T10:08:09;10.27;;;6.60;;
80179;SDS011;69505;52.134;5.438;2023-11-21T10:10:36;9.93;;;6.50;;
80179;SDS011;69505;52.134;5.438;2023-11-21T10:13:07;11.60;;;6.30;;
80179;SDS011;69505;52.134;5.438;2023-11-21T10:15:43;11.13;;;6.35;;
80179;SDS011;69505;52.134;5.438;2023-11-21T10:18:16;10.40;;;6.05;;
80179;SDS011;69505;52.134;5.438;2023-11-21T10:20:44;12.25;;;6.20;;
80179;SDS011;69505;52.134;5.438;2023-11-21T10:23:19;11.63;;;6.07;;
80179;SDS011;69505;52.134;5.438;2023-11-21T10:25:47;11.55;;;6.28;;
80179;SDS011;69505;52.134;5.438;2023-11-21T10:28:16;8.63;;;5.57;;
80179;SDS011;69505;52.134;5.438;2023-11-21T10:30:42;8.48;;;5.75;;
80179;SDS011;69505;52.134;5.438;2023-11-21T10:33:10;8.57;;;5.70;;
80179;SDS011;69505;52.134;5.438;2023-11-21T10:35:44;7.93;;;5.88;;
80179;SDS011;69505;52.134;5.438;2023-11-21T10:38:13;7.95;;;5.00;;
80179;SDS011;69505;52.134;5.438;2023-11-21T10:40:40;11.15;;;5.45;;
80179;SDS011;69505;52.134;5.438;2023-11-21T10:43:09;9.13;;;5.57;;
80179;SDS011;69505;52.134;5.438;2023-11-21T10:45:39;9.52;;;5.50;;
80179;SDS011;69505;52.134;5.438;2023-11-21T10:48:06;9.85;;;5.55;;
80179;SDS011;69505;52.134;5.438;2023-11-21T10:50:38;9.15;;;5.63;;
80179;SDS011;69505;52.134;5.438;2023-11-21T10:53:04;8.45;;;4.97;;
80179;SDS011;69505;52.134;5.438;2023-11-21T10:55:32;7.68;;;4.65;;
80179;SDS011;69505;52.134;5.438;2023-11-21T10:58:00;7.78;;;4.63;;
80179;SDS011;69505;52.134;5.438;2023-11-21T11:00:33;7.05;;;4.30;;
80179;SDS011;69505;52.134;5.438;2023-11-21T11:03:00;7.15;;;4.30;;
80179;SDS011;69505;52.134;5.438;2023-11-21T11:05:29;8.80;;;4.65;;
80179;SDS011;69505;52.134;5.438;2023-11-21T11:08:00;10.98;;;4.90;;
80179;SDS011;69505;52.134;5.438;2023-11-21T11:10:34;9.38;;;5.68;;
80179;SDS011;69505;52.134;5.438;2023-11-21T11:13:01;9.90;;;5.32;;
80179;SDS011;69505;52.134;5.438;2023-11-21T11:15:28;10.60;;;5.53;;
80179;SDS011;69505;52.134;5.438;2023-11-21T11:17:54;10.23;;;5.60;;
80179;SDS011;69505;52.134;5.438;2023-11-21T11:20:25;7.95;;;4.97;;
80179;SDS011;69505;52.134;5.438;2023-11-21T11:28:47;7.88;;;5.25;;
80179;SDS011;69505;52.134;5.438;2023-11-21T11:31:27;9.88;;;6.00;;
80179;SDS011;69505;52.134;5.438;2023-11-21T11:39:40;8.27;;;5.25;;
80179;SDS011;69505;52.134;5.438;2023-11-21T11:42:13;9.55;;;5.78;;
80179;SDS011;69505;52.134;5.438;2023-11-21T11:47:27;8.25;;;5.53;;
80179;SDS011;69505;52.134;5.438;2023-11-21T11:52:37;10.20;;;6.07;;
80179;SDS011;69505;52.134;5.438;2023-11-21T11:55:07;10.13;;;6.55;;
80179;SDS011;69505;52.134;5.438;2023-11-21T11:57:36;10.82;;;6.32;;
80179;SDS011;69505;52.134;5.438;2023-11-21T12:02:53;10.07;;;5.82;;
80179;SDS011;69505;52.134;5.438;2023-11-21T12:05:21;12.20;;;7.45;;
80179;SDS011;69505;52.134;5.438;2023-11-21T12:10:20;10.48;;;6.15;;
80179;SDS011;69505;52.134;5.438;2023-11-21T12:12:49;10.20;;;5.97;;
80179;SDS011;69505;52.134;5.438;2023-11-21T12:15:20;11.52;;;7.00;;
80179;SDS011;69505;52.134;5.438;2023-11-21T12:17:48;11.82;;;7.72;;
80179;SDS011;69505;52.134;5.438;2023-11-21T12:20:18;11.55;;;6.93;;
80179;SDS011;69505;52.134;5.438;2023-11-21T12:22:46;12.35;;;7.00;;
80179;SDS011;69505;52.134;5.438;2023-11-21T12:25:32;11.32;;;7.35;;
80179;SDS011;69505;52.134;5.438;2023-11-21T12:27:59;11.00;;;7.07;;
80179;SDS011;69505;52.134;5.438;2023-11-21T12:30:28;12.52;;;7.25;;
80179;SDS011;69505;52.134;5.438;2023-11-21T12:32:57;11.25;;;7.22;;
80179;SDS011;69505;52.134;5.438;2023-11-21T12:35:26;12.88;;;8.05;;
80179;SDS011;69505;52.134;5.438;2023-11-21T12:37:54;10.52;;;6.72;;
80179;SDS011;69505;52.134;5.438;2023-11-21T12:40:23;13.98;;;6.13;;
80179;SDS011;69505;52.134;5.438;2023-11-21T12:42:51;13.27;;;7.70;;
80179;SDS011;69505;52.134;5.438;2023-11-21T12:45:23;14.10;;;7.75;;
80179;SDS011;69505;52.134;5.438;2023-11-21T12:48:04;15.73;;;8.45;;
80179;SDS011;69505;52.134;5.438;2023-11-21T12:50:35;12.98;;;7.45;;
80179;SDS011;69505;52.134;5.438;2023-11-21T12:55:32;13.13;;;7.63;;
80179;SDS011;69505;52.134;5.438;2023-11-21T12:58:00;12.88;;;6.68;;
80179;SDS011;69505;52.134;5.438;2023-11-21T13:00:40;11.90;;;7.43;;
80179;SDS011;69505;52.134;5.438;2023-11-21T13:03:10;12.73;;;8.20;;
80179;SDS011;69505;52.134;5.438;2023-11-21T13:05:40;10.65;;;7.53;;
80179;SDS011;69505;52.134;5.438;2023-11-21T13:08:14;13.52;;;7.20;;
80179;SDS011;69505;52.134;5.438;2023-11-21T13:10:44;11.63;;;7.22;;
80179;SDS011;69505;52.134;5.438;2023-11-21T13:13:15;10.02;;;6.50;;
80179;SDS011;69505;52.134;5.438;2023-11-21T13:18:41;10.02;;;6.50;;
80179;SDS011;69505;52.134;5.438;2023-11-21T13:21:08;9.57;;;5.75;;
80179;SDS011;69505;52.134;5.438;2023-11-21T13:23:44;9.57;;;5.97;;
80179;SDS011;69505;52.134;5.438;2023-11-21T13:26:12;8.85;;;5.60;;
80179;SDS011;69505;52.134;5.438;2023-11-21T13:28:41;5.70;;;3.70;;
80179;SDS011;69505;52.134;5.438;2023-11-21T13:31:13;6.13;;;3.92;;
80179;SDS011;69505;52.134;5.438;2023-11-21T13:33:59;6.07;;;3.30;;
80179;SDS011;69505;52.134;5.438;2023-11-21T13:36:31;6.03;;;3.38;;
80179;SDS011;69505;52.134;5.438;2023-11-21T13:39:01;5.00;;;3.10;;
80179;SDS011;69505;52.134;5.438;2023-11-21T13:41:34;5.63;;;3.42;;
80179;SDS011;69505;52.134;5.438;2023-11-21T13:44:00;4.93;;;3.55;;
80179;SDS011;69505;52.134;5.438;2023-11-21T13:46:42;5.90;;;3.70;;
80179;SDS011;69505;52.134;5.438;2023-11-21T13:49:10;6.97;;;4.10;;
80179;SDS011;69505;52.134;5.438;2023-11-21T13:51:37;9.00;;;5.38;;
80179;SDS011;69505;52.134;5.438;2023-11-21T13:54:08;9.27;;;5.40;;
80179;SDS011;69505;52.134;5.438;2023-11-21T13:56:36;10.43;;;5.95;;
80179;SDS011;69505;52.134;5.438;2023-11-21T13:59:03;11.13;;;5.70;;
80179;SDS011;69505;52.134;5.438;2023-11-21T14:01:45;11.38;;;6.63;;
80179;SDS011;69505;52.134;5.438;2023-11-21T14:04:43;11.55;;;7.18;;
80179;SDS011;69505;52.134;5.438;2023-11-21T14:07:15;13.63;;;7.85;;
80179;SDS011;69505;52.134;5.438;2023-11-21T14:09:52;14.68;;;7.45;;
80179;SDS011;69505;52.134;5.438;2023-11-21T14:12:19;14.13;;;8.13;;
80179;SDS011;69505;52.134;5.438;2023-11-21T14:14:45;12.18;;;7.45;;
80179;SDS011;69505;52.134;5.438;2023-11-21T14:17:13;12.93;;;7.78;;
80179;SDS011;69505;52.134;5.438;2023-11-21T14:19:40;12.52;;;7.57;;
80179;SDS011;69505;52.134;5.438;2023-11-21T14:22:10;14.32;;;7.43;;
80179;SDS011;69505;52.134;5.438;2023-11-21T14:24:37;11.40;;;7.68;;
80179;SDS011;69505;52.134;5.438;2023-11-21T14:27:03;14.90;;;8.05;;
80179;SDS011;69505;52.134;5.438;2023-11-21T14:29:31;13.10;;;8.02;;
80179;SDS011;69505;52.134;5.438;2023-11-21T14:32:03;11.88;;;7.45;;
80179;SDS011;69505;52.134;5.438;2023-11-21T14:34:30;12.27;;;7.43;;
80179;SDS011;69505;52.134;5.438;2023-11-21T14:36:57;14.98;;;8.60;;
80179;SDS011;69505;52.134;5.438;2023-11-21T14:39:23;15.25;;;8.68;;
80179;SDS011;69505;52.134;5.438;2023-11-21T14:41:52;11.90;;;7.30;;
80179;SDS011;69505;52.134;5.438;2023-11-21T14:44:22;14.15;;;8.05;;
80179;SDS011;69505;52.134;5.438;2023-11-21T14:46:52;15.55;;;7.90;;
80179;SDS011;69505;52.134;5.438;2023-11-21T14:49:24;14.65;;;8.20;;
80179;SDS011;69505;52.134;5.438;2023-11-21T14:51:54;15.70;;;7.90;;
80179;SDS011;69505;52.134;5.438;2023-11-21T14:54:31;15.52;;;8.57;;
80179;SDS011;69505;52.134;5.438;2023-11-21T14:57:09;15.18;;;8.77;;
80179;SDS011;69505;52.134;5.438;2023-11-21T14:59:43;16.42;;;8.27;;
80179;SDS011;69505;52.134;5.438;2023-11-21T15:02:13;15.07;;;8.32;;
80179;SDS011;69505;52.134;5.438;2023-11-21T15:04:45;13.88;;;8.57;;
80179;SDS011;69505;52.134;5.438;2023-11-21T15:07:11;13.27;;;7.72;;
80179;SDS011;69505;52.134;5.438;2023-11-21T15:09:38;15.48;;;8.07;;
80179;SDS011;69505;52.134;5.438;2023-11-21T15:12:07;13.02;;;8.60;;
80179;SDS011;69505;52.134;5.438;2023-11-21T15:14:42;14.05;;;8.85;;
80179;SDS011;69505;52.134;5.438;2023-11-21T15:17:12;14.15;;;8.82;;
80179;SDS011;69505;52.134;5.438;2023-11-21T15:19:47;14.35;;;9.05;;
80179;SDS011;69505;52.134;5.438;2023-11-21T15:22:14;14.02;;;7.82;;
80179;SDS011;69505;52.134;5.438;2023-11-21T15:24:42;13.43;;;8.55;;